Time;durP1;ratioP1;P1;durP2;ratioP2;P2;SDS_P1;SDS_P2;PMS_P1;PMS_P2;Temp;Humidity;BMP_temperature;BMP_pressure;BME280_temperature;BME280_humidity;BME280_pressure;Samples;Min_cycle;Max_cycle;Signal;HPM_P1;HPM_P2
2022/08/03 00:00:40;;;;;;;0.10;0.10;;;19.50;88.90;;;;;;5092269;28;20395;-73
2022/08/03 00:03:06;;;;;;;0.17;0.17;;;19.60;88.70;;;;;;5092188;28;20035;-73
2022/08/03 00:05:32;;;;;;;1.65;0.60;;;19.70;88.60;;;;;;5092163;28;20070;-73
2022/08/03 00:07:59;;;;;;;0.13;0.13;;;19.70;88.40;;;;;;5092024;28;20056;-74
2022/08/03 00:10:25;;;;;;;0.10;0.10;;;19.60;89.00;;;;;;5090854;28;20032;-74
2022/08/03 00:12:52;;;;;;;0.20;0.20;;;19.60;88.70;;;;;;5092119;28;20420;-73
2022/08/03 00:15:18;;;;;;;0.10;0.10;;;19.40;89.60;;;;;;5091784;28;20036;-74
2022/08/03 00:17:44;;;;;;;2.38;0.40;;;19.40;90.00;;;;;;5093799;28;20431;-73
2022/08/03 00:20:10;;;;;;;0.10;0.10;;;19.40;89.80;;;;;;5097806;28;20467;-73
2022/08/03 00:22:36;;;;;;;0.17;0.17;;;19.40;90.00;;;;;;5097504;28;20016;-73
2022/08/03 00:25:02;;;;;;;0.10;0.10;;;19.50;90.20;;;;;;5098522;28;20054;-73
2022/08/03 00:27:28;;;;;;;0.10;0.10;;;19.50;90.20;;;;;;5098603;28;20028;-73
2022/08/03 00:29:54;;;;;;;0.10;0.10;;;19.50;90.20;;;;;;5098704;28;20024;-73
2022/08/03 00:32:20;;;;;;;0.10;0.10;;;19.50;90.50;;;;;;5098616;28;20467;-74
2022/08/03 00:34:45;;;;;;;0.28;0.28;;;19.50;90.50;;;;;;5097429;28;20055;-74
2022/08/03 00:37:11;;;;;;;0.13;0.13;;;19.50;90.20;;;;;;5098394;28;20052;-74
2022/08/03 00:39:37;;;;;;;0.10;0.10;;;19.60;90.30;;;;;;5098795;28;20050;-74
2022/08/03 00:42:03;;;;;;;0.10;0.10;;;19.60;90.40;;;;;;5097415;28;20058;-73
2022/08/03 00:44:29;;;;;;;0.10;0.10;;;19.60;90.60;;;;;;5098614;28;20479;-74
2022/08/03 00:46:55;;;;;;;0.08;0.08;;;19.60;90.40;;;;;;5096871;28;20031;-73
2022/08/03 00:49:21;;;;;;;0.10;0.10;;;19.70;90.50;;;;;;5097066;28;20055;-73
2022/08/03 00:51:47;;;;;;;0.10;0.10;;;19.50;90.70;;;;;;5097214;28;20023;-74
2022/08/03 00:54:14;;;;;;;0.10;0.10;;;19.50;91.10;;;;;;5098468;28;20016;-73
2022/08/03 00:56:41;;;;;;;0.10;0.10;;;19.70;90.60;;;;;;5098208;28;20020;-73
2022/08/03 00:59:09;;;;;;;0.10;0.10;;;19.70;90.40;;;;;;5098095;28;20035;-73
2022/08/03 01:01:35;;;;;;;0.10;0.10;;;19.70;90.30;;;;;;5098400;28;20085;-73
2022/08/03 01:04:01;;;;;;;0.10;0.10;;;19.90;90.20;;;;;;5098574;28;20383;-74
2022/08/03 01:06:47;;;;;;;0.10;0.10;;;19.90;90.20;;;;;;5098146;28;20031;-73
2022/08/03 01:09:20;;;;;;;1.10;0.50;;;20.20;89.70;;;;;;5098468;28;20187;-73
2022/08/03 01:11:55;;;;;;;0.40;0.40;;;20.20;89.70;;;;;;5098282;28;20035;-73
2022/08/03 01:14:36;;;;;;;0.10;0.10;;;20.10;89.80;;;;;;5097135;28;20085;-74
2022/08/03 01:17:13;;;;;;;0.15;0.15;;;19.90;90.50;;;;;;5098114;28;20111;-73
2022/08/03 01:19:45;;;;;;;0.28;0.28;;;19.70;90.80;;;;;;5098252;28;20028;-74
2022/08/03 01:22:29;;;;;;;0.20;0.20;;;19.40;91.30;;;;;;5098258;28;20371;-73
2022/08/03 01:24:57;;;;;;;0.10;0.10;;;19.20;91.90;;;;;;5098088;28;20024;-75
2022/08/03 01:27:50;;;;;;;0.10;0.10;;;19.00;92.60;;;;;;5098050;28;20031;-74
2022/08/03 01:30:16;;;;;;;0.10;0.10;;;19.10;92.60;;;;;;5095042;28;20027;-73
2022/08/03 01:32:53;;;;;;;0.98;0.43;;;19.00;92.90;;;;;;5094995;28;20032;-74
2022/08/03 01:35:32;;;;;;;0.30;0.30;;;18.70;93.50;;;;;;5093458;28;20021;-73
2022/08/03 01:38:03;;;;;;;0.30;0.30;;;18.60;94.40;;;;;;5094796;28;20031;-73
2022/08/03 01:40:33;;;;;;;0.20;0.20;;;18.50;94.90;;;;;;5094944;28;20027;-73
2022/08/03 01:43:01;;;;;;;0.30;0.30;;;18.50;95.50;;;;;;5094644;28;20540;-73
2022/08/03 01:45:30;;;;;;;0.10;0.10;;;18.50;96.60;;;;;;5094536;28;20458;-73
2022/08/03 01:47:56;;;;;;;0.20;0.20;;;18.50;97.20;;;;;;5093165;28;20031;-74
2022/08/03 01:50:27;;;;;;;7.75;0.30;;;18.70;97.60;;;;;;5094571;28;20527;-74
2022/08/03 01:52:55;;;;;;;0.52;0.47;;;18.60;97.50;;;;;;5094670;28;20073;-73
2022/08/03 01:55:23;;;;;;;0.05;0.05;;;18.60;97.90;;;;;;5093086;28;20016;-73
2022/08/03 01:57:51;;;;;;;1.35;0.30;;;18.60;98.50;;;;;;5076224;28;20016;-73
2022/08/03 02:00:18;;;;;;;0.10;0.10;;;18.80;98.20;;;;;;5094225;28;20475;-73
2022/08/03 02:02:47;;;;;;;0.20;0.20;;;18.90;98.50;;;;;;5094453;28;20077;-74
2022/08/03 02:05:15;;;;;;;0.13;0.13;;;19.00;97.80;;;;;;5092774;28;20478;-73
2022/08/03 02:07:42;;;;;;;0.25;0.25;;;19.10;97.30;;;;;;5094224;28;20020;-74
2022/08/03 02:10:10;;;;;;;0.10;0.10;;;19.10;97.30;;;;;;5094193;28;20028;-75
2022/08/03 02:12:38;;;;;;;0.10;0.10;;;19.00;97.90;;;;;;5092921;28;20051;-73
2022/08/03 02:15:05;;;;;;;0.50;0.50;;;19.10;97.80;;;;;;5093887;28;20069;-73
2022/08/03 02:17:33;;;;;;;0.20;0.20;;;19.20;97.90;;;;;;5092814;28;20086;-74
2022/08/03 02:20:00;;;;;;;1.10;1.08;;;19.20;97.60;;;;;;5092591;28;20027;-74
2022/08/03 02:22:28;;;;;;;0.13;0.13;;;19.20;97.80;;;;;;5094084;28;20024;-73
2022/08/03 02:24:54;;;;;;;0.10;0.10;;;19.10;97.90;;;;;;5093930;28;20031;-74
2022/08/03 02:27:23;;;;;;;0.10;0.10;;;19.20;97.90;;;;;;5092430;28;20055;-73
2022/08/03 02:29:53;;;;;;;0.10;0.10;;;19.30;97.50;;;;;;5093870;28;20027;-74
2022/08/03 02:32:28;;;;;;;0.10;0.10;;;19.30;97.30;;;;;;5093715;28;20054;-74
2022/08/03 02:34:56;;;;;;;0.17;0.17;;;19.20;98.50;;;;;;5093629;28;20028;-73
2022/08/03 02:37:27;;;;;;;0.10;0.10;;;19.20;98.40;;;;;;5092363;28;20089;-73
2022/08/03 02:40:00;;;;;;;0.10;0.10;;;19.10;98.70;;;;;;5093673;28;20433;-73
2022/08/03 02:42:27;;;;;;;0.20;0.20;;;19.00;99.10;;;;;;5092471;28;20024;-73
2022/08/03 02:44:55;;;;;;;0.30;0.30;;;18.80;99.90;;;;;;5092143;28;20031;-74
2022/08/03 02:47:22;;;;;;;0.17;0.17;;;18.60;99.90;;;;;;5093305;28;20020;-73
2022/08/03 02:49:49;;;;;;;0.20;0.20;;;18.60;99.90;;;;;;5092177;28;20021;-73
2022/08/03 02:52:17;;;;;;;0.43;0.35;;;18.60;99.90;;;;;;5092097;28;20102;-74
2022/08/03 02:54:46;;;;;;;0.10;0.10;;;18.50;99.90;;;;;;5093451;28;20024;-73
2022/08/03 02:57:14;;;;;;;0.10;0.10;;;18.60;99.90;;;;;;5093156;28;20020;-73
2022/08/03 02:59:41;;;;;;;0.13;0.13;;;18.50;99.90;;;;;;5093065;28;20521;-74
2022/08/03 03:02:08;;;;;;;0.10;0.10;;;18.50;99.90;;;;;;5075062;28;20429;-73
2022/08/03 03:04:34;;;;;;;0.10;0.10;;;18.60;99.90;;;;;;5093168;28;20475;-74
2022/08/03 03:07:00;;;;;;;0.10;0.10;;;18.60;99.90;;;;;;5092840;28;20059;-73
2022/08/03 03:09:27;;;;;;;0.30;0.30;;;18.40;99.90;;;;;;5074848;28;20055;-73
2022/08/03 03:11:53;;;;;;;0.82;0.52;;;18.30;99.90;;;;;;5093096;28;20030;-73
2022/08/03 03:14:20;;;;;;;0.45;0.40;;;18.20;99.90;;;;;;5091574;28;20051;-73
2022/08/03 03:16:47;;;;;;;0.10;0.10;;;18.10;99.90;;;;;;5092665;28;20085;-74
2022/08/03 03:19:15;;;;;;;0.20;0.20;;;18.00;99.90;;;;;;5091643;28;20034;-73
2022/08/03 03:21:43;;;;;;;0.10;0.10;;;18.20;99.90;;;;;;5092949;28;20086;-73
2022/08/03 03:24:09;;;;;;;0.35;0.35;;;18.30;99.90;;;;;;5092711;28;20518;-73
2022/08/03 03:26:36;;;;;;;0.50;0.50;;;18.40;99.90;;;;;;5092602;28;20502;-73
2022/08/03 03:29:02;;;;;;;0.10;0.10;;;18.40;99.90;;;;;;5092758;28;20019;-74
2022/08/03 03:31:28;;;;;;;0.10;0.10;;;18.40;99.90;;;;;;5092710;28;20020;-74
2022/08/03 03:33:57;;;;;;;0.10;0.10;;;18.40;99.90;;;;;;5092689;28;20028;-74
2022/08/03 03:36:23;;;;;;;0.10;0.10;;;18.50;99.90;;;;;;5092584;28;20482;-73
2022/08/03 03:38:49;;;;;;;0.10;0.10;;;18.50;99.90;;;;;;5091155;28;20082;-74
2022/08/03 03:41:15;;;;;;;0.20;0.20;;;18.50;99.90;;;;;;5092450;28;20028;-74
2022/08/03 03:43:41;;;;;;;0.17;0.17;;;18.50;99.90;;;;;;5092570;28;20036;-74
2022/08/03 03:46:07;;;;;;;0.30;0.30;;;18.40;99.90;;;;;;5092561;28;20454;-74
2022/08/03 03:48:33;;;;;;;0.10;0.10;;;18.30;99.90;;;;;;5092300;28;20020;-73
2022/08/03 03:51:00;;;;;;;0.85;0.40;;;18.10;99.90;;;;;;5090988;28;20032;-73
2022/08/03 03:53:26;;;;;;;0.20;0.20;;;18.00;99.90;;;;;;5091916;28;20020;-73
2022/08/03 03:55:52;;;;;;;0.10;0.10;;;17.80;99.90;;;;;;5092136;28;20030;-73
2022/08/03 03:58:19;;;;;;;0.10;0.10;;;17.80;99.90;;;;;;5090942;28;20028;-73
2022/08/03 04:00:45;;;;;;;0.15;0.15;;;17.80;99.90;;;;;;5092012;28;20588;-73
2022/08/03 04:03:11;;;;;;;0.20;0.20;;;17.80;99.90;;;;;;5073954;28;20126;-73
2022/08/03 04:11:33;;;;;;;0.10;0.10;;;18.40;99.90;;;;;;5092133;28;20024;-73
2022/08/03 04:14:17;;;;;;;0.10;0.10;;;18.60;99.90;;;;;;5092038;28;20032;-73
2022/08/03 04:16:47;;;;;;;0.10;0.10;;;18.70;99.90;;;;;;5073770;28;20059;-73
2022/08/03 04:19:23;;;;;;;0.10;0.10;;;18.70;99.90;;;;;;5090839;28;20027;-73
2022/08/03 04:21:53;;;;;;;0.10;0.10;;;18.70;99.90;;;;;;5092049;28;20028;-74
2022/08/03 04:24:20;;;;;;;0.10;0.10;;;18.70;99.90;;;;;;5091932;28;20016;-73
2022/08/03 04:26:49;;;;;;;0.10;0.10;;;18.70;99.90;;;;;;5090496;28;20413;-73
2022/08/03 04:29:15;;;;;;;0.10;0.10;;;18.80;99.90;;;;;;5091887;28;20047;-73
2022/08/03 04:31:42;;;;;;;0.10;0.10;;;18.90;99.90;;;;;;5091845;28;20105;-74
2022/08/03 04:34:07;;;;;;;0.10;0.10;;;19.00;99.90;;;;;;5091905;28;20364;-74
2022/08/03 04:36:43;;;;;;;0.00;0.00;;;19.30;99.90;;;;;;5090251;28;20028;-73
2022/08/03 04:39:27;;;;;;;0.10;0.10;;;19.30;99.90;;;;;;5091827;28;20039;-73
2022/08/03 04:41:56;;;;;;;0.10;0.10;;;19.50;99.90;;;;;;5090570;28;20028;-73
2022/08/03 04:44:24;;;;;;;0.08;0.08;;;19.50;99.90;;;;;;5091799;28;20474;-74
2022/08/03 04:46:51;;;;;;;0.10;0.10;;;19.70;99.90;;;;;;5091838;28;20413;-73
2022/08/03 04:49:18;;;;;;;0.10;0.10;;;19.50;99.90;;;;;;5091739;28;20051;-75
2022/08/03 04:51:45;;;;;;;0.10;0.10;;;19.40;99.90;;;;;;5090731;28;20023;-75
2022/08/03 04:54:15;;;;;;;0.10;0.10;;;19.50;99.90;;;;;;5091727;28;20024;-75
2022/08/03 04:56:42;;;;;;;0.08;0.08;;;19.60;99.90;;;;;;5091512;28;20031;-75
2022/08/03 04:59:09;;;;;;;0.80;0.22;;;19.70;99.90;;;;;;5091633;28;20031;-76
2022/08/03 05:01:35;;;;;;;0.10;0.10;;;19.70;99.90;;;;;;5089993;28;20119;-76
2022/08/03 05:04:01;;;;;;;0.10;0.10;;;19.70;99.90;;;;;;5090376;28;20031;-76
2022/08/03 05:06:27;;;;;;;0.10;0.10;;;19.80;99.90;;;;;;5093865;28;20031;-76
2022/08/03 05:08:53;;;;;;;0.10;0.10;;;20.00;99.90;;;;;;5094134;28;20095;-76
2022/08/03 05:11:18;;;;;;;0.68;0.45;;;20.10;99.90;;;;;;5094104;28;20107;-75
2022/08/03 05:13:45;;;;;;;0.10;0.10;;;20.00;99.90;;;;;;5107805;22;20020;-73
2022/08/03 05:16:11;;;;;;;0.10;0.10;;;19.90;99.90;;;;;;5095298;28;20479;-73
2022/08/03 05:18:37;;;;;;;0.05;0.05;;;20.00;99.90;;;;;;5095981;28;20050;-73
2022/08/03 05:21:03;;;;;;;1.33;1.30;;;20.10;99.90;;;;;;5094199;28;20024;-73
2022/08/03 05:23:30;;;;;;;0.10;0.10;;;20.20;99.90;;;;;;5095468;28;20036;-74
2022/08/03 05:25:55;;;;;;;0.10;0.10;;;20.30;99.90;;;;;;5095141;28;20024;-74
2022/08/03 05:28:21;;;;;;;0.10;0.10;;;20.30;99.90;;;;;;5095068;28;20106;-73
2022/08/03 05:30:47;;;;;;;0.10;0.10;;;20.30;99.90;;;;;;5095161;28;20024;-73
2022/08/03 05:33:13;;;;;;;0.10;0.10;;;20.40;99.90;;;;;;5095079;28;20059;-73
2022/08/03 05:35:39;;;;;;;0.10;0.10;;;20.50;99.90;;;;;;5094784;28;20111;-74
2022/08/03 05:38:05;;;;;;;0.10;0.10;;;20.50;99.90;;;;;;5085754;28;20368;-73
2022/08/03 05:40:31;;;;;;;0.28;0.28;;;20.60;99.90;;;;;;5094884;28;20108;-73
2022/08/03 05:42:57;;;;;;;0.10;0.10;;;20.50;99.90;;;;;;5094635;28;20074;-73
2022/08/03 05:45:24;;;;;;;0.10;0.10;;;20.50;99.90;;;;;;5080286;28;20048;-73
2022/08/03 05:47:50;;;;;;;0.10;0.10;;;20.50;99.90;;;;;;5074319;28;20020;-73
2022/08/03 05:50:17;;;;;;;0.10;0.10;;;20.60;99.90;;;;;;5074477;28;20029;-73
2022/08/03 05:52:43;;;;;;;1.00;0.90;;;20.70;99.90;;;;;;5073198;28;20074;-73
2022/08/03 05:55:10;;;;;;;0.10;0.10;;;20.70;99.90;;;;;;5073159;28;20021;-73
2022/08/03 05:57:37;;;;;;;0.10;0.10;;;20.70;99.90;;;;;;5074271;28;20077;-73
2022/08/03 06:00:10;;;;;;;0.10;0.10;;;20.80;99.90;;;;;;5073057;28;20499;-73
2022/08/03 06:02:36;;;;;;;0.10;0.10;;;21.00;99.90;;;;;;5074383;28;20103;-73
2022/08/03 06:05:03;;;;;;;0.10;0.10;;;21.20;99.90;;;;;;5074149;28;20056;-73
2022/08/03 06:07:29;;;;;;;0.10;0.10;;;21.20;99.90;;;;;;5073922;28;20488;-74
2022/08/03 06:09:54;;;;;;;0.10;0.10;;;21.40;99.90;;;;;;5072931;28;20031;-74
2022/08/03 06:12:20;;;;;;;0.10;0.10;;;21.40;99.90;;;;;;5073976;28;20021;-73
2022/08/03 06:14:46;;;;;;;0.10;0.10;;;21.50;99.90;;;;;;5074025;28;20056;-74
2022/08/03 06:17:11;;;;;;;0.00;0.00;;;21.70;99.90;;;;;;5072286;28;20526;-73
2022/08/03 06:19:37;;;;;;;0.05;0.05;;;21.70;99.90;;;;;;5073949;28;20074;-72
2022/08/03 06:22:03;;;;;;;0.10;0.10;;;21.90;99.90;;;;;;5073881;28;20078;-74
2022/08/03 06:24:29;;;;;;;0.00;0.00;;;22.10;99.90;;;;;;5075013;28;20040;-71
2022/08/03 06:26:55;;;;;;;0.00;0.00;;;22.20;99.90;;;;;;5076068;28;20028;-71
2022/08/03 06:29:20;;;;;;;0.10;0.10;;;22.40;99.90;;;;;;5073640;28;20019;-71
2022/08/03 06:31:46;;;;;;;0.10;0.10;;;22.50;99.90;;;;;;5073592;28;20017;-71
2022/08/03 06:34:12;;;;;;;0.10;0.10;;;22.60;99.90;;;;;;5073518;28;20068;-71
2022/08/03 06:36:38;;;;;;;0.10;0.10;;;22.70;99.90;;;;;;5073245;28;20495;-71
2022/08/03 06:39:05;;;;;;;0.10;0.10;;;22.90;99.90;;;;;;5073477;28;20041;-72
2022/08/03 06:41:31;;;;;;;0.08;0.08;;;23.00;99.90;;;;;;5073431;28;20024;-72
2022/08/03 06:43:56;;;;;;;0.00;0.00;;;23.10;99.90;;;;;;5075717;28;20081;-72
2022/08/03 06:46:22;;;;;;;0.00;0.00;;;23.20;99.90;;;;;;5074018;28;20035;-74
2022/08/03 06:48:48;;;;;;;0.00;0.00;;;23.30;99.90;;;;;;5073252;28;20411;-74
2022/08/03 06:51:13;;;;;;;0.00;0.00;;;23.40;99.90;;;;;;5073355;28;20027;-74
2022/08/03 06:53:40;;;;;;;0.00;0.00;;;23.40;99.00;;;;;;5073275;28;20027;-74
2022/08/03 06:56:06;;;;;;;0.08;0.08;;;23.50;98.70;;;;;;5073178;28;20099;-74
2022/08/03 06:58:33;;;;;;;0.00;0.00;;;23.60;98.50;;;;;;5072955;28;20029;-74
2022/08/03 07:00:58;;;;;;;0.00;0.00;;;23.80;96.90;;;;;;5086367;28;20024;-73
2022/08/03 07:03:24;;;;;;;0.00;0.00;;;23.90;96.20;;;;;;5092124;28;20120;-75
2022/08/03 07:05:50;;;;;;;0.00;0.00;;;23.80;96.30;;;;;;5091753;28;20528;-73
2022/08/03 07:08:17;;;;;;;0.00;0.00;;;24.00;95.50;;;;;;5093052;28;20494;-73
2022/08/03 07:10:44;;;;;;;0.00;0.00;;;24.00;95.00;;;;;;5092893;28;20073;-73
2022/08/03 07:13:10;;;;;;;0.08;0.08;;;24.10;95.60;;;;;;5072695;28;20029;-73
2022/08/03 07:15:36;;;;;;;0.00;0.00;;;24.10;94.70;;;;;;5054562;28;20035;-73
2022/08/03 07:18:02;;;;;;;0.05;0.05;;;24.20;94.70;;;;;;5072802;28;20415;-73
2022/08/03 07:20:28;;;;;;;0.05;0.05;;;24.50;94.40;;;;;;5072678;28;20017;-73
2022/08/03 07:22:53;;;;;;;0.00;0.00;;;24.60;93.70;;;;;;5071455;28;20111;-73
2022/08/03 07:25:19;;;;;;;0.10;0.10;;;24.70;93.90;;;;;;5072479;28;20387;-73
2022/08/03 07:27:46;;;;;;;0.10;0.10;;;24.80;93.20;;;;;;5071776;28;20025;-73
2022/08/03 07:30:13;;;;;;;0.00;0.00;;;24.90;93.00;;;;;;5072488;28;20028;-73
2022/08/03 07:32:39;;;;;;;0.00;0.00;;;25.10;92.00;;;;;;5071105;28;20024;-73
2022/08/03 07:35:06;;;;;;;0.05;0.05;;;25.30;91.40;;;;;;5072378;28;20024;-73
2022/08/03 07:37:32;;;;;;;0.00;0.00;;;25.30;91.50;;;;;;5070989;28;20522;-73
2022/08/03 07:39:59;;;;;;;0.00;0.00;;;25.40;91.40;;;;;;5072243;28;20024;-73
2022/08/03 07:42:27;;;;;;;0.10;0.10;;;25.60;90.90;;;;;;5072110;28;20020;-73
2022/08/03 07:44:52;;;;;;;0.00;0.00;;;25.60;90.90;;;;;;5072301;28;20309;-73
2022/08/03 07:47:20;;;;;;;0.00;0.00;;;25.90;90.70;;;;;;5071894;28;20565;-73
2022/08/03 07:49:46;;;;;;;0.00;0.00;;;25.90;90.50;;;;;;5071018;28;20071;-73
2022/08/03 07:54:56;;;;;;;0.00;0.00;;;26.30;82.60;;;;;;5087566;28;20478;-73
2022/08/03 07:57:22;;;;;;;0.00;0.00;;;26.20;83.20;;;;;;5092259;28;20028;-73
2022/08/03 07:59:48;;;;;;;0.10;0.10;;;26.30;81.00;;;;;;5092372;28;20032;-73
2022/08/03 08:02:14;;;;;;;0.05;0.05;;;26.50;80.50;;;;;;5091065;28;20487;-73
2022/08/03 08:04:40;;;;;;;0.00;0.00;;;26.70;78.10;;;;;;5090839;28;20023;-73
2022/08/03 08:07:06;;;;;;;0.00;0.00;;;26.80;79.00;;;;;;5091985;28;20102;-74
2022/08/03 08:09:33;;;;;;;0.00;0.00;;;26.80;80.30;;;;;;5092035;28;20032;-73
2022/08/03 08:11:58;;;;;;;1.88;1.75;;;27.00;79.90;;;;;;5090610;28;20020;-74
2022/08/03 08:14:24;;;;;;;0.40;0.40;;;27.10;79.10;;;;;;5090793;28;20036;-74
2022/08/03 08:16:50;;;;;;;0.00;0.00;;;27.10;79.50;;;;;;5091881;28;20028;-74
2022/08/03 08:19:16;;;;;;;0.38;0.38;;;27.00;79.20;;;;;;5092077;28;20065;-74
2022/08/03 08:21:43;;;;;;;0.10;0.10;;;27.00;79.70;;;;;;5091958;28;20028;-73
2022/08/03 08:24:09;;;;;;;3.40;0.17;;;27.20;78.30;;;;;;5092096;28;20020;-74
2022/08/03 08:26:35;;;;;;;0.00;0.00;;;27.50;76.90;;;;;;5078345;28;20021;-74
2022/08/03 08:29:01;;;;;;;0.10;0.10;;;27.40;76.40;;;;;;5071709;28;20032;-74
2022/08/03 08:31:27;;;;;;;0.00;0.00;;;27.70;76.00;;;;;;5071720;28;20029;-73
2022/08/03 08:33:52;;;;;;;0.00;0.00;;;27.80;76.20;;;;;;5071559;28;20025;-73
2022/08/03 08:36:18;;;;;;;0.10;0.05;;;27.70;76.10;;;;;;5072194;28;20495;-74
2022/08/03 08:38:44;;;;;;;0.00;0.00;;;27.80;76.60;;;;;;5072555;28;20029;-74
2022/08/03 08:41:12;;;;;;;0.10;0.10;;;28.00;75.80;;;;;;5075564;28;20028;-73
2022/08/03 08:43:37;;;;;;;0.10;0.08;;;28.10;74.60;;;;;;5075660;28;20083;-75
2022/08/03 08:46:07;;;;;;;0.00;0.00;;;28.20;73.80;;;;;;5075449;28;20396;-74
2022/08/03 08:48:34;;;;;;;0.25;0.25;;;28.50;72.70;;;;;;5086537;28;20130;-74
2022/08/03 08:51:01;;;;;;;0.52;0.20;;;28.60;70.80;;;;;;5095796;28;20070;-74
2022/08/03 08:53:29;;;;;;;0.00;0.00;;;28.60;71.60;;;;;;5095668;28;20020;-74
2022/08/03 08:55:59;;;;;;;0.17;0.10;;;28.60;71.90;;;;;;5095502;28;20028;-74
2022/08/03 08:58:28;;;;;;;0.00;0.00;;;28.70;72.40;;;;;;5095732;28;20031;-74
2022/08/03 09:00:53;;;;;;;0.00;0.00;;;29.10;69.60;;;;;;5095608;28;20498;-74
2022/08/03 09:03:19;;;;;;;0.22;0.22;;;29.20;68.60;;;;;;5096007;28;20024;-74
2022/08/03 09:05:46;;;;;;;0.00;0.00;;;29.50;67.10;;;;;;5095692;28;20036;-74
2022/08/03 09:08:12;;;;;;;0.10;0.10;;;29.60;65.70;;;;;;5095397;28;20103;-74
2022/08/03 09:10:38;;;;;;;0.00;0.00;;;29.70;64.90;;;;;;5095399;28;20028;-74
2022/08/03 09:13:03;;;;;;;0.13;0.13;;;29.50;66.20;;;;;;5093939;28;20020;-73
2022/08/03 09:15:31;;;;;;;0.20;0.10;;;29.70;65.90;;;;;;5091214;28;20032;-73
2022/08/03 09:18:00;;;;;;;0.00;0.00;;;29.80;64.10;;;;;;5089827;28;20161;-73
2022/08/03 09:20:28;;;;;;;0.00;0.00;;;30.00;63.50;;;;;;5095404;28;20027;-73
2022/08/03 09:23:09;;;;;;;0.00;0.00;;;29.90;63.90;;;;;;5095330;28;20073;-73
2022/08/03 09:25:40;;;;;;;0.20;0.20;;;30.10;62.10;;;;;;5093540;28;20020;-73
2022/08/03 09:28:07;;;;;;;0.00;0.00;;;30.10;63.30;;;;;;5094914;28;20073;-73
2022/08/03 09:30:33;;;;;;;0.20;0.20;;;30.40;62.20;;;;;;5095167;28;20020;-73
2022/08/03 09:33:04;;;;;;;0.00;0.00;;;30.40;61.40;;;;;;5094903;28;20028;-74
2022/08/03 09:35:31;;;;;;;0.43;0.35;;;30.70;60.00;;;;;;5094666;28;20020;-73
2022/08/03 09:38:13;;;;;;;0.00;0.00;;;30.80;60.70;;;;;;5093562;28;20052;-75
2022/08/03 09:40:39;;;;;;;0.00;0.00;;;30.90;58.70;;;;;;5076599;28;20020;-74
2022/08/03 09:43:07;;;;;;;0.10;0.10;;;30.70;58.90;;;;;;5094734;28;20020;-74
2022/08/03 09:45:37;;;;;;;1.15;0.50;;;31.00;57.40;;;;;;5094399;28;20022;-74
2022/08/03 09:48:23;;;;;;;0.00;0.00;;;31.30;57.10;;;;;;5094539;28;20399;-74
2022/08/03 09:50:50;;;;;;;0.43;0.20;;;31.40;58.30;;;;;;5075457;28;20017;-74
2022/08/03 09:53:17;;;;;;;0.00;0.00;;;31.70;56.80;;;;;;5094564;28;20024;-74
2022/08/03 09:55:56;;;;;;;0.20;0.20;;;31.70;57.20;;;;;;5093107;28;20021;-74
2022/08/03 09:58:24;;;;;;;0.13;0.13;;;31.50;57.70;;;;;;5094329;28;20024;-74
2022/08/03 10:01:08;;;;;;;0.00;0.00;;;31.90;58.00;;;;;;5077108;28;20032;-74
2022/08/03 10:03:36;;;;;;;0.00;0.00;;;32.30;57.10;;;;;;5074208;28;20112;-74
2022/08/03 10:06:19;;;;;;;0.15;0.15;;;32.30;55.20;;;;;;5074017;28;20025;-75
2022/08/03 10:09:05;;;;;;;0.73;0.32;;;32.10;55.20;;;;;;5074035;28;20020;-74
2022/08/03 10:11:33;;;;;;;0.10;0.10;;;32.00;55.20;;;;;;5073845;28;20032;-74
2022/08/03 10:14:05;;;;;;;0.00;0.00;;;31.90;54.70;;;;;;5073870;28;20036;-72
2022/08/03 10:16:36;;;;;;;0.00;0.00;;;31.90;55.00;;;;;;5073883;28;20078;-72
2022/08/03 10:19:04;;;;;;;0.00;0.00;;;32.10;54.20;;;;;;5073905;28;20036;-72
2022/08/03 10:21:36;;;;;;;0.55;0.52;;;32.30;55.20;;;;;;5073826;28;20036;-72
2022/08/03 10:24:07;;;;;;;0.00;0.00;;;32.50;53.90;;;;;;5073657;28;20036;-72
2022/08/03 10:26:35;;;;;;;0.10;0.10;;;32.40;53.80;;;;;;5090133;28;20042;-72
2022/08/03 10:29:03;;;;;;;0.00;0.00;;;32.60;53.60;;;;;;5093872;28;20521;-72
2022/08/03 10:31:38;;;;;;;0.95;0.65;;;32.30;54.30;;;;;;5093774;28;20028;-73
2022/08/03 10:34:10;;;;;;;0.00;0.00;;;32.70;53.20;;;;;;5083341;28;20036;-72
2022/08/03 10:36:39;;;;;;;0.10;0.10;;;32.90;53.80;;;;;;5073259;28;20074;-72
2022/08/03 10:39:05;;;;;;;0.00;0.00;;;33.30;52.20;;;;;;5072261;28;20023;-72
2022/08/03 10:41:37;;;;;;;0.10;0.10;;;33.30;50.70;;;;;;5073412;28;20036;-72
2022/08/03 10:44:02;;;;;;;;;;;33.00;51.20;;;;;;5073843;28;20052;-72
2022/08/03 10:46:28;;;;;;;0.08;0.08;;;33.20;51.70;;;;;;5072943;28;20291;-72
2022/08/03 10:48:55;;;;;;;0.55;0.32;;;33.20;51.30;;;;;;5073219;28;20158;-72
2022/08/03 10:51:22;;;;;;;0.00;0.00;;;32.90;51.70;;;;;;5073257;28;20495;-72
2022/08/03 10:53:48;;;;;;;0.00;0.00;;;33.20;50.70;;;;;;5073276;28;20468;-72
2022/08/03 10:59:43;;;;;;;0.00;0.00;;;33.60;50.20;;;;;;5086966;28;20031;-73
2022/08/03 11:02:09;;;;;;;0.20;0.20;;;33.90;49.20;;;;;;5090898;28;20031;-72
2022/08/03 11:04:35;;;;;;;0.00;0.00;;;33.50;49.60;;;;;;5090793;28;20020;-73
2022/08/03 11:07:21;;;;;;;0.00;0.00;;;33.50;49.50;;;;;;5092608;28;20027;-73
2022/08/03 11:09:52;;;;;;;0.10;0.10;;;33.60;47.60;;;;;;5093204;28;20024;-73
2022/08/03 11:12:26;;;;;;;0.00;0.00;;;33.50;47.00;;;;;;5093081;28;20026;-72
2022/08/03 11:14:53;;;;;;;0.00;0.00;;;33.20;49.90;;;;;;5079630;22;20045;-75
2022/08/03 11:17:19;;;;;;;0.10;0.10;;;33.80;48.00;;;;;;5053229;28;20170;-75
2022/08/03 11:19:47;;;;;;;0.00;0.00;;;33.90;48.00;;;;;;5053085;28;20060;-75
2022/08/03 11:22:14;;;;;;;0.00;0.00;;;34.20;46.10;;;;;;5053128;28;20487;-75
2022/08/03 11:24:40;;;;;;;0.10;0.10;;;34.70;45.70;;;;;;5052820;28;20029;-75
2022/08/03 11:27:18;;;;;;;0.00;0.00;;;35.00;47.00;;;;;;5052609;28;20082;-75
2022/08/03 11:30:00;;;;;;;0.00;0.00;;;34.60;45.60;;;;;;5052697;28;20358;-74
2022/08/03 11:32:45;;;;;;;0.00;0.00;;;34.30;46.10;;;;;;5051496;28;20366;-75
2022/08/03 11:35:14;;;;;;;0.00;0.00;;;34.00;45.90;;;;;;5052932;28;20379;-75
2022/08/03 11:38:01;;;;;;;0.75;0.30;;;34.20;47.90;;;;;;5051317;28;20441;-74
2022/08/03 11:40:42;;;;;;;0.00;0.00;;;34.40;48.00;;;;;;5052662;28;20104;-74
2022/08/03 11:43:09;;;;;;;0.65;0.28;;;34.90;46.60;;;;;;5052475;28;20044;-74
2022/08/03 11:45:36;;;;;;;0.00;0.00;;;34.60;45.20;;;;;;5052358;28;20389;-73
2022/08/03 11:48:14;;;;;;;0.00;0.00;;;34.60;45.90;;;;;;5051021;28;20079;-74
2022/08/03 11:50:44;;;;;;;0.00;0.00;;;34.90;45.10;;;;;;5051065;28;20054;-73
2022/08/03 11:53:14;;;;;;;0.00;0.00;;;34.60;45.00;;;;;;5052417;28;20017;-74
2022/08/03 11:55:43;;;;;;;0.17;0.17;;;34.40;46.30;;;;;;5052339;28;20063;-74
2022/08/03 11:58:15;;;;;;;0.00;0.00;;;34.40;45.80;;;;;;5052125;28;20389;-74
2022/08/03 12:00:40;;;;;;;0.00;0.00;;;34.20;45.20;;;;;;5051089;28;20025;-74
2022/08/03 12:03:13;;;;;;;0.00;0.00;;;34.30;45.50;;;;;;5052052;28;20021;-73
2022/08/03 12:05:49;;;;;;;0.00;0.00;;;34.20;44.60;;;;;;5051858;28;20074;-74
2022/08/03 12:08:35;;;;;;;0.00;0.00;;;33.70;44.60;;;;;;5050457;28;20066;-74
2022/08/03 12:11:04;;;;;;;0.00;0.00;;;33.90;45.90;;;;;;5051872;28;20037;-74
2022/08/03 12:13:39;;;;;;;0.00;0.00;;;34.10;44.60;;;;;;5050561;28;20427;-73
2022/08/03 12:16:05;;;;;;;0.45;0.45;;;34.00;44.50;;;;;;5051641;28;20036;-74
2022/08/03 12:18:31;;;;;;;0.00;0.00;;;34.00;44.70;;;;;;5048643;28;20032;-74
2022/08/03 12:21:11;;;;;;;0.00;0.00;;;34.00;44.50;;;;;;5050572;28;20044;-74
2022/08/03 12:23:37;;;;;;;0.00;0.00;;;33.90;43.40;;;;;;5051889;28;20021;-74
2022/08/03 12:26:05;;;;;;;0.00;0.00;;;33.70;43.60;;;;;;5033929;28;20052;-74
2022/08/03 12:28:31;;;;;;;0.00;0.00;;;33.60;43.10;;;;;;5051692;28;20021;-74
2022/08/03 12:31:02;;;;;;;0.00;0.00;;;33.60;42.30;;;;;;5051637;28;20032;-74
2022/08/03 12:33:28;;;;;;;0.10;0.10;;;33.50;41.40;;;;;;5051743;28;20025;-74
2022/08/03 12:36:08;;;;;;;0.00;0.00;;;33.10;42.30;;;;;;5050537;28;20055;-73
2022/08/03 12:38:35;;;;;;;0.00;0.00;;;33.00;42.80;;;;;;5052015;28;20447;-74
2022/08/03 12:41:15;;;;;;;0.00;0.00;;;33.10;42.90;;;;;;5051396;28;20051;-74
2022/08/03 12:43:50;;;;;;;0.00;0.00;;;33.20;42.30;;;;;;5051933;28;20029;-74
2022/08/03 12:46:18;;;;;;;0.00;0.00;;;33.10;41.80;;;;;;5051927;28;20025;-74
2022/08/03 12:49:02;;;;;;;0.25;0.10;;;32.70;43.10;;;;;;5052129;28;20025;-74
2022/08/03 12:51:30;;;;;;;2.80;0.17;;;32.60;44.30;;;;;;5051808;28;20104;-74
2022/08/03 12:53:57;;;;;;;0.00;0.00;;;32.50;43.90;;;;;;5052122;28;20086;-74
2022/08/03 12:56:23;;;;;;;0.00;0.00;;;32.50;45.10;;;;;;5035902;28;20388;-74
2022/08/03 12:58:49;;;;;;;0.00;0.00;;;32.50;44.30;;;;;;5051239;28;20477;-72
2022/08/03 13:01:16;;;;;;;0.00;0.00;;;32.50;43.90;;;;;;5050285;28;20075;-73
2022/08/03 13:03:44;;;;;;;0.00;0.00;;;32.50;44.90;;;;;;5050187;28;20037;-73
2022/08/03 13:06:12;;;;;;;0.00;0.00;;;32.60;44.60;;;;;;5051369;28;20044;-73